Time;durP1;ratioP1;P1;durP2;ratioP2;P2;SDS_P1;SDS_P2;PMS_P1;PMS_P2;Temp;Humidity;BMP_temperature;BMP_pressure;BME280_temperature;BME280_humidity;BME280_pressure;Samples;Min_cycle;Max_cycle;Signal;HPM_P1;HPM_P2
2021/04/28 00:25:19;;;;;;;8.23;3.30;;;10.20;40.70;;;-147.08;100.00;65180.75;4991455;28;20056;-55
2021/04/28 00:27:47;;;;;;;16.73;4.72;;;10.20;40.90;;;-147.08;100.00;65180.75;4992713;28;20054;-58
2021/04/28 00:30:16;;;;;;;6.80;3.75;;;10.20;41.10;;;9.39;100.00;84212.25;4993008;28;20042;-58
2021/04/28 00:32:44;;;;;;;7.63;4.22;;;10.10;41.30;;;-147.08;100.00;65180.75;5008097;28;20050;-58
2021/04/28 00:35:14;;;;;;;12.43;3.85;;;10.10;41.40;;;9.38;100.00;65180.75;4992545;28;20050;-58
2021/04/28 00:37:41;;;;;;;10.82;4.40;;;10.10;41.40;;;-147.08;100.00;65180.75;4992908;28;20050;-58
2021/04/28 00:40:12;;;;;;;9.65;4.50;;;10.00;41.70;;;9.27;100.00;84302.06;4993187;28;20038;-57
2021/04/28 00:42:42;;;;;;;11.30;4.55;;;10.00;41.70;;;-147.08;100.00;65180.75;4992986;28;20061;-59
2021/04/28 00:45:12;;;;;;;9.60;4.07;;;10.00;41.90;;;9.22;100.00;84302.06;5007769;28;20114;-58
2021/04/28 00:47:38;;;;;;;8.98;4.30;;;9.90;42.10;;;-147.08;100.00;65180.75;4992451;28;20069;-60
2021/04/28 00:50:09;;;;;;;9.43;4.45;;;9.90;42.10;;;9.20;100.00;84302.06;4992815;28;20077;-55
2021/04/28 00:52:37;;;;;;;8.68;4.03;;;9.90;42.30;;;-147.08;100.00;65180.75;5007739;28;20042;-58
2021/04/28 00:55:05;;;;;;;7.65;4.28;;;9.90;42.40;;;9.14;100.00;84302.06;4992631;28;20046;-57
2021/04/28 00:57:33;;;;;;;8.82;4.90;;;9.80;42.60;;;-147.08;100.00;65180.75;4992589;28;20046;-58
2021/04/28 01:00:03;;;;;;;10.15;4.25;;;9.80;42.70;;;-147.08;100.00;65180.75;4992507;28;20477;-60
2021/04/28 01:02:30;;;;;;;8.52;4.05;;;9.70;42.80;;;-147.08;100.00;65180.75;4992285;28;20070;-58
2021/04/28 01:04:57;;;;;;;7.45;4.07;;;9.70;42.70;;;-147.08;100.00;65180.75;4992572;28;20050;-60
2021/04/28 01:07:26;;;;;;;10.15;4.13;;;9.70;42.90;;;-147.08;100.00;65180.75;4991544;28;20043;-59
2021/04/28 01:09:54;;;;;;;12.52;5.20;;;9.70;42.90;;;-147.08;100.00;65180.75;4992472;28;20440;-59
2021/04/28 01:12:22;;;;;;;7.55;4.43;;;9.70;43.00;;;8.98;100.00;65180.75;4988135;28;20043;-58
2021/04/28 01:20:48;;;;;;;7.95;4.15;;;9.80;42.80;;;-147.08;100.00;65180.75;4990788;28;20049;-58
2021/04/28 01:23:16;;;;;;;8.15;4.22;;;9.90;42.50;;;-147.08;100.00;65180.75;5011214;28;20043;-57
2021/04/28 01:25:46;;;;;;;12.10;4.50;;;9.90;42.70;;;-147.08;100.00;65180.75;5011284;28;20109;-58
2021/04/28 01:28:23;;;;;;;9.57;4.18;;;9.80;42.70;;;-147.08;100.00;65180.75;5011080;28;20101;-54
2021/04/28 01:31:02;;;;;;;11.55;4.25;;;9.70;42.70;;;8.82;100.00;65180.75;4995868;28;20046;-56
2021/04/28 01:33:47;;;;;;;10.20;4.15;;;9.60;43.30;;;-147.08;100.00;65180.75;5011240;28;20138;-56
2021/04/28 01:36:20;;;;;;;7.95;4.45;;;9.40;44.40;;;188.52;100.00;65180.75;5010895;28;20047;-57
2021/04/28 01:38:59;;;;;;;7.72;4.15;;;9.40;44.10;;;-147.08;100.00;65180.75;5011162;28;20567;-57
2021/04/28 01:41:28;;;;;;;10.50;4.95;;;9.30;44.10;;;-147.08;100.00;65180.75;4996184;28;20074;-59
2021/04/28 01:43:58;;;;;;;8.27;4.20;;;9.40;44.00;;;-147.08;100.00;65180.75;4994939;28;20543;-54
2021/04/28 01:46:28;;;;;;;7.50;4.13;;;9.40;44.00;;;188.52;100.00;65180.75;4991142;28;20608;-54
2021/04/28 01:48:59;;;;;;;7.95;4.07;;;9.30;44.20;;;-147.08;100.00;65180.75;4982527;28;20109;-58
2021/04/28 01:51:31;;;;;;;10.18;4.43;;;9.30;44.40;;;-147.08;100.00;65180.75;5008724;28;20046;-59
2021/04/28 01:54:04;;;;;;;11.15;4.82;;;9.30;44.20;;;8.58;100.00;65180.75;4995025;28;20138;-58
2021/04/28 01:56:31;;;;;;;10.43;4.97;;;9.30;44.20;;;-147.08;100.00;65180.75;5010829;28;20097;-57
2021/04/28 01:59:19;;;;;;;12.20;4.72;;;9.30;44.20;;;188.52;100.00;65180.75;4995957;28;20042;-57
2021/04/28 02:02:13;;;;;;;7.30;3.92;;;9.30;44.30;;;-147.08;100.00;65180.75;4991963;28;20403;-58
2021/04/28 02:04:45;;;;;;;7.88;4.20;;;9.30;44.10;;;8.59;100.00;65180.75;5010621;28;20050;-58
2021/04/28 02:07:15;;;;;;;6.85;3.72;;;9.30;44.00;;;-147.08;100.00;65180.75;4991223;28;20381;-59
2021/04/28 02:09:42;;;;;;;6.93;3.83;;;9.30;44.00;;;-147.08;100.00;65180.75;5004707;28;20133;-52
2021/04/28 02:12:17;;;;;;;8.85;4.30;;;9.30;44.10;;;-147.08;100.00;65180.75;4998277;28;20492;-56
2021/04/28 02:14:50;;;;;;;9.45;3.90;;;9.20;44.30;;;-147.08;100.00;65180.75;4990598;28;20066;-57
2021/04/28 02:17:30;;;;;;;8.68;3.83;;;9.30;44.20;;;188.52;100.00;65180.75;4994177;28;20034;-56
2021/04/28 02:20:00;;;;;;;8.77;4.20;;;9.30;44.30;;;-147.08;100.00;65180.75;4978258;28;20413;-60
2021/04/28 02:22:37;;;;;;;10.15;4.82;;;9.20;44.40;;;188.52;100.00;65180.75;5010606;28;20133;-59
2021/04/28 02:25:14;;;;;;;9.68;4.68;;;9.20;44.50;;;8.38;100.00;65180.75;5010249;28;20065;-58
2021/04/28 02:27:54;;;;;;;11.32;4.85;;;9.10;44.60;;;8.25;100.00;65180.75;5010259;28;20054;-60
2021/04/28 02:30:28;;;;;;;8.00;4.68;;;9.00;44.90;;;8.16;100.00;65180.75;5010014;28;20508;-58
2021/04/28 02:32:55;;;;;;;10.00;4.32;;;8.90;45.30;;;8.13;100.00;65180.75;5009549;28;20126;-58
2021/04/28 02:35:55;;;;;;;9.15;4.43;;;8.90;45.40;;;-147.08;100.00;65180.75;4995361;28;20046;-59
2021/04/28 02:38:58;;;;;;;9.23;4.90;;;8.90;45.30;;;-147.08;100.00;65180.75;4935020;29;20082;-56
2021/04/28 02:41:30;;;;;;;9.23;4.70;;;8.90;45.50;;;-147.08;100.00;65180.75;4934722;29;20048;-58
2021/04/28 02:43:59;;;;;;;10.98;4.43;;;8.80;45.60;;;-147.08;100.00;65180.75;4915460;29;20048;-58
2021/04/28 02:46:34;;;;;;;9.32;5.07;;;8.70;45.80;;;-147.08;100.00;65180.75;4933957;29;20048;-58
2021/04/28 02:49:02;;;;;;;6.95;3.78;;;8.70;46.00;;;-147.08;100.00;65180.75;4919087;29;20051;-57
2021/04/28 02:51:35;;;;;;;10.48;4.95;;;8.70;46.10;;;-147.08;100.00;65180.75;4934555;29;20071;-55
2021/04/28 02:54:07;;;;;;;8.35;4.70;;;8.70;46.00;;;-147.08;100.00;65180.75;4934654;29;20047;-57
2021/04/28 02:56:38;;;;;;;10.85;4.47;;;8.70;45.90;;;-147.08;100.00;65180.75;4918831;29;20056;-55
2021/04/28 02:59:07;;;;;;;14.15;5.47;;;8.60;46.20;;;-147.08;100.00;65180.75;4934279;29;20526;-57
2021/04/28 03:01:35;;;;;;;10.13;4.78;;;8.60;46.40;;;-147.08;100.00;65180.75;4918582;29;20060;-59
2021/04/28 03:04:04;;;;;;;7.63;3.90;;;8.60;46.50;;;7.83;100.00;65180.75;4919059;29;20051;-57
2021/04/28 03:06:51;;;;;;;7.80;4.65;;;8.60;46.50;;;8.76;100.00;65180.75;4915365;29;20048;-58
2021/04/28 03:09:19;;;;;;;10.57;5.15;;;8.50;47.00;;;7.65;100.00;65180.75;4925519;29;20079;-59
2021/04/28 03:11:48;;;;;;;9.90;4.90;;;8.40;47.20;;;7.65;100.00;65180.75;4934225;29;20080;-57
2021/04/28 03:14:17;;;;;;;6.25;3.80;;;8.40;47.20;;;7.71;100.00;65180.75;4923994;28;20087;-56
2021/04/28 03:16:45;;;;;;;9.13;4.28;;;8.40;47.00;;;7.75;100.00;65180.75;5009220;28;20061;-57
2021/04/28 03:19:15;;;;;;;9.18;3.97;;;8.50;47.00;;;7.71;100.00;65180.75;4989452;28;20556;-59
2021/04/28 03:21:47;;;;;;;9.77;4.68;;;8.40;47.10;;;7.63;100.00;65180.75;5004175;28;20140;-56
2021/04/28 03:24:16;;;;;;;9.55;4.38;;;8.30;47.50;;;7.60;100.00;65180.75;5009146;28;20065;-56
2021/04/28 03:26:44;;;;;;;7.93;3.78;;;8.30;47.50;;;7.52;100.00;65180.75;5008829;28;20381;-58
2021/04/28 03:29:11;;;;;;;8.30;4.35;;;8.30;47.60;;;7.52;100.00;65180.75;5009109;28;20050;-55
2021/04/28 03:31:42;;;;;;;9.07;4.03;;;8.30;47.70;;;7.57;100.00;65180.75;4992450;28;20046;-56
2021/04/28 03:34:12;;;;;;;10.35;4.80;;;8.30;47.50;;;7.49;100.00;65180.75;5008999;28;20043;-57
2021/04/28 03:36:39;;;;;;;10.20;4.97;;;8.20;47.90;;;-147.08;100.00;65180.75;5009096;28;20444;-53
2021/04/28 03:39:19;;;;;;;10.02;4.35;;;8.20;48.00;;;-147.08;100.00;65180.75;5009048;28;20050;-54
2021/04/28 03:41:45;;;;;;;7.18;4.22;;;8.10;48.00;;;7.49;100.00;65180.75;5008678;28;20381;-55
2021/04/28 03:44:12;;;;;;;11.27;5.05;;;8.20;47.70;;;7.49;100.00;65180.75;4992675;28;20081;-58
2021/04/28 03:46:40;;;;;;;12.32;4.28;;;8.20;47.70;;;7.49;100.00;65180.75;5008610;28;20118;-55
2021/04/28 03:49:07;;;;;;;10.02;3.95;;;8.20;47.70;;;-147.08;100.00;65180.75;4993943;28;20050;-57
2021/04/28 03:51:34;;;;;;;9.90;4.82;;;8.10;47.90;;;-147.08;100.00;65180.75;5008857;28;20559;-57
2021/04/28 03:54:24;;;;;;;11.30;5.25;;;8.20;47.70;;;-147.08;100.00;65180.75;4989274;28;20050;-53
2021/04/28 03:56:58;;;;;;;9.18;3.78;;;8.20;47.70;;;7.49;100.00;65180.75;4993041;28;20058;-57
2021/04/28 03:59:24;;;;;;;10.02;4.68;;;8.20;47.70;;;7.48;100.00;65180.75;4992433;28;20475;-58
2021/04/28 04:01:54;;;;;;;5.90;3.95;;;8.20;47.80;;;-147.08;100.00;65180.75;4993226;28;20053;-57
2021/04/28 04:04:22;;;;;;;11.00;4.93;;;8.20;47.90;;;-147.08;100.00;65180.75;4993783;28;20054;-56
2021/04/28 04:07:07;;;;;;;10.77;4.50;;;8.10;48.10;;;7.37;100.00;65180.75;4993422;28;20077;-56
2021/04/28 04:10:07;;;;;;;9.38;5.25;;;8.00;48.10;;;-147.08;100.00;65180.75;4990788;28;20054;-59
2021/04/28 04:12:34;;;;;;;9.10;5.18;;;8.00;48.10;;;-147.08;100.00;65180.75;4990884;28;20092;-57
2021/04/28 04:15:06;;;;;;;11.05;4.40;;;7.90;48.50;;;-147.08;100.00;65180.75;4990966;28;20444;-58
2021/04/28 04:17:33;;;;;;;11.27;5.45;;;7.90;48.70;;;-147.08;100.00;65180.75;4990958;28;20049;-57
2021/04/28 04:20:12;;;;;;;9.00;4.82;;;7.90;48.50;;;7.15;100.00;65180.75;4990579;28;20061;-58
2021/04/28 04:22:48;;;;;;;9.93;4.70;;;7.90;48.60;;;-147.08;100.00;65180.75;4974902;28;20459;-55
2021/04/28 04:25:36;;;;;;;9.02;4.75;;;7.90;48.80;;;-147.08;100.00;65180.75;4990219;28;20448;-56
2021/04/28 04:28:04;;;;;;;8.00;4.43;;;7.80;48.80;;;7.45;100.00;65180.75;4971354;28;20134;-53
2021/04/28 04:30:51;;;;;;;11.88;4.50;;;7.90;48.60;;;-147.08;100.00;65180.75;4987409;28;20563;-57
2021/04/28 04:33:37;;;;;;;8.52;4.20;;;7.90;48.50;;;-147.08;100.00;65180.75;4996133;28;20066;-56
2021/04/28 04:36:25;;;;;;;8.43;4.00;;;7.90;48.50;;;-147.08;100.00;65180.75;4974700;28;20050;-57
2021/04/28 04:39:10;;;;;;;9.02;4.72;;;7.90;48.40;;;-147.08;100.00;65180.75;4998581;28;20117;-58
2021/04/28 04:41:55;;;;;;;10.45;5.75;;;8.00;48.50;;;-147.08;100.00;65180.75;4992321;28;20053;-58
2021/04/28 04:44:41;;;;;;;9.30;5.07;;;7.90;48.70;;;-147.08;100.00;65180.75;4991058;28;20050;-58
2021/04/28 04:47:09;;;;;;;8.13;4.38;;;7.90;48.70;;;-147.08;100.00;65180.75;4992810;28;20444;-57
2021/04/28 04:49:38;;;;;;;11.20;4.57;;;7.90;48.60;;;-147.08;100.00;65180.75;4992960;28;20065;-59
2021/04/28 04:52:06;;;;;;;11.32;4.55;;;7.70;49.00;;;-147.08;100.00;65180.75;4993298;28;20109;-60
2021/04/28 04:54:33;;;;;;;11.02;4.93;;;7.80;49.20;;;7.17;100.00;65180.75;4992531;28;20097;-58
2021/04/28 04:57:00;;;;;;;9.48;4.57;;;7.80;48.90;;;-147.08;100.00;65180.75;4992357;28;20100;-57
2021/04/28 04:59:27;;;;;;;9.32;4.20;;;7.80;49.50;;;-147.08;100.00;65180.75;4992647;28;20088;-59
2021/04/28 05:01:54;;;;;;;;;;;7.80;49.60;;;-147.08;100.00;65180.75;4992829;28;20426;-57
2021/04/28 05:04:22;;;;;;;8.82;4.38;;;7.80;49.30;;;-147.08;100.00;65180.75;4992490;28;19949;-58
2021/04/28 05:06:48;;;;;;;8.25;4.50;;;7.80;49.30;;;-147.08;100.00;65180.75;4992469;28;20404;-58
2021/04/28 05:09:15;;;;;;;7.55;3.58;;;7.80;49.40;;;-147.08;100.00;65180.75;4992282;28;20050;-58
2021/04/28 05:11:42;;;;;;;;;;;7.80;49.50;;;-147.08;100.00;65180.75;4992935;28;20121;-58
2021/04/28 05:14:08;;;;;;;14.50;4.50;;;7.80;49.60;;;-147.08;100.00;65180.75;4992804;28;19932;-58
2021/04/28 05:16:35;;;;;;;;;;;7.80;49.60;;;-147.08;100.00;65180.75;4992737;28;20050;-57
2021/04/28 05:19:02;;;;;;;9.57;5.20;;;7.80;49.70;;;-147.08;100.00;65180.75;4992245;28;19922;-57
2021/04/28 05:21:29;;;;;;;8.25;4.80;;;7.80;49.60;;;-147.08;100.00;65180.75;5007817;28;20089;-58
2021/04/28 05:23:58;;;;;;;14.50;5.50;;;7.70;49.70;;;-147.08;100.00;65180.75;5006849;28;20806;-59
2021/04/28 05:26:29;;;;;;;12.13;5.35;;;7.80;49.70;;;-147.08;100.00;65180.75;4992556;28;20093;-54
2021/04/28 05:28:56;;;;;;;8.40;5.15;;;7.80;50.00;;;-147.08;100.00;65180.75;4991859;28;20048;-58
2021/04/28 05:31:23;;;;;;;12.07;6.13;;;7.90;50.40;;;7.30;100.00;65180.75;4996679;28;20078;-58
2021/04/28 05:33:50;;;;;;;15.30;5.90;;;7.90;49.30;;;-147.08;100.00;65180.75;5000315;28;20062;-58
2021/04/28 05:36:17;;;;;;;9.23;5.10;;;8.00;49.40;;;-147.08;100.00;65180.75;4997768;28;20058;-55
2021/04/28 05:38:44;;;;;;;14.23;5.35;;;8.00;49.80;;;-147.08;100.00;65180.75;4997787;28;20051;-57
2021/04/28 05:41:10;;;;;;;;;;;8.00;49.30;;;-147.08;100.00;65180.75;4999458;28;20509;-56
2021/04/28 05:43:38;;;;;;;8.88;5.05;;;8.00;49.50;;;7.55;100.00;65180.75;4996552;28;20689;-58
2021/04/28 05:46:05;;;;;;;9.30;4.30;;;8.10;49.20;;;7.56;100.00;65180.75;5000832;28;20046;-57
2021/04/28 05:48:32;;;;;;;11.23;4.80;;;8.10;49.10;;;7.57;100.00;65180.75;4996385;28;20049;-57
2021/04/28 05:50:59;;;;;;;14.85;6.35;;;8.10;49.30;;;7.64;100.00;65180.75;5000736;28;20437;-57
2021/04/28 05:53:26;;;;;;;;;;;8.20;49.30;;;7.68;100.00;65180.75;4987368;28;20041;-58
2021/04/28 05:55:53;;;;;;;13.55;4.90;;;8.20;49.70;;;7.58;100.00;65180.75;5000150;28;20008;-55
2021/04/28 05:58:20;;;;;;;8.43;4.30;;;8.10;49.40;;;7.59;100.00;65180.75;4997722;28;20070;-57
2021/04/28 06:00:47;;;;;;;12.80;5.43;;;8.10;49.50;;;-147.08;100.00;65180.75;4994632;28;20046;-56
2021/04/28 06:03:13;;;;;;;13.80;5.88;;;8.10;49.70;;;-147.08;100.00;65180.75;4997275;28;20049;-57
2021/04/28 06:05:40;;;;;;;10.68;5.47;;;8.10;49.60;;;7.61;100.00;65180.75;4996500;28;20085;-58
2021/04/28 06:08:07;;;;;;;;;;;8.10;49.70;;;7.58;100.00;65180.75;5001358;28;20112;-58
2021/04/28 06:10:33;;;;;;;9.25;4.22;;;8.10;51.30;;;7.51;100.00;65180.75;4999757;28;19922;-57
2021/04/28 06:13:01;;;;;;;7.68;3.72;;;8.00;50.70;;;7.52;100.00;65180.75;5003237;28;20385;-58
2021/04/28 06:15:27;;;;;;;5.22;3.45;;;8.10;50.70;;;-147.08;100.00;65180.75;4998871;28;20058;-57
2021/04/28 06:17:54;;;;;;;11.15;5.13;;;8.10;50.50;;;-147.08;100.00;65180.75;5001565;28;20049;-57
2021/04/28 06:20:21;;;;;;;13.65;6.20;;;8.10;51.30;;;7.65;100.00;65180.75;5001632;28;20097;-59
2021/04/28 06:22:48;;;;;;;11.13;5.03;;;8.10;51.50;;;7.73;100.00;65180.75;4998122;28;20061;-56
2021/04/28 06:25:15;;;;;;;;;;;8.20;51.10;;;-147.08;100.00;65180.75;5003442;28;20073;-52
2021/04/28 06:27:43;;;;;;;10.50;5.50;;;8.30;51.50;;;-147.08;100.00;65180.75;4999327;28;19921;-55
2021/04/28 06:30:11;;;;;;;12.00;6.40;;;8.30;52.20;;;-147.08;100.00;65180.75;4994507;28;20096;-53
2021/04/28 06:32:38;;;;;;;9.15;4.80;;;8.40;51.10;;;7.93;100.00;65180.75;4994343;28;20050;-57
2021/04/28 06:35:08;;;;;;;17.55;6.57;;;8.50;50.90;;;-147.08;100.00;65180.75;4994923;28;20043;-54
2021/04/28 06:37:36;;;;;;;13.23;6.53;;;8.50;51.10;;;8.04;100.00;65180.75;4994600;28;20436;-55
2021/04/28 06:40:09;;;;;;;15.75;7.03;;;8.40;51.60;;;-147.08;100.00;65180.75;4994883;28;20054;-56
2021/04/28 06:42:35;;;;;;;11.60;6.35;;;8.30;51.70;;;-147.08;100.00;65180.75;4994778;28;20058;-56
2021/04/28 06:45:05;;;;;;;9.93;4.97;;;8.30;51.50;;;7.87;100.00;65180.75;4994795;28;20520;-53
2021/04/28 06:47:32;;;;;;;9.27;4.90;;;8.50;51.20;;;-147.08;100.00;65180.75;4994987;28;20559;-56
2021/04/28 06:49:59;;;;;;;5.38;3.45;;;8.60;51.10;;;8.10;100.00;65180.75;4993783;28;20065;-55
2021/04/28 06:52:26;;;;;;;9.43;5.25;;;8.60;51.50;;;8.24;100.00;65180.75;5009949;28;20047;-55
2021/04/28 06:54:52;;;;;;;14.75;6.32;;;8.60;51.40;;;8.17;100.00;65180.75;4994550;28;20050;-58
2021/04/28 06:57:19;;;;;;;;;;;8.60;51.20;;;8.21;100.00;65180.75;4990372;28;20046;-57
2021/04/28 06:59:46;;;;;;;9.65;5.15;;;8.60;51.50;;;8.22;100.00;65180.75;4990542;28;19922;-56
2021/04/28 07:02:13;;;;;;;8.20;4.07;;;8.70;51.30;;;8.33;100.00;65180.75;4994036;28;20093;-57
2021/04/28 07:04:41;;;;;;;12.93;6.75;;;8.70;51.60;;;8.41;100.00;65180.75;4993839;28;20042;-57
2021/04/28 07:07:08;;;;;;;11.18;5.22;;;8.80;51.00;;;-147.08;100.00;65180.75;4994487;28;20097;-56
2021/04/28 07:09:35;;;;;;;12.45;7.63;;;8.80;51.00;;;-147.08;100.00;65180.75;4993984;28;20046;-57
2021/04/28 07:12:02;;;;;;;13.25;5.70;;;8.80;51.40;;;8.49;100.00;65180.75;4994098;28;20045;-59
2021/04/28 07:14:30;;;;;;;11.27;7.53;;;8.90;51.00;;;8.57;100.00;65180.75;4993367;28;20058;-58
2021/04/28 07:16:56;;;;;;;15.88;6.50;;;9.00;50.80;;;8.51;100.00;65180.75;4994139;28;20101;-58
2021/04/28 07:19:24;;;;;;;15.98;6.18;;;8.90;51.00;;;-147.08;100.00;65180.75;4993308;28;20042;-58
2021/04/28 07:21:50;;;;;;;12.38;5.47;;;9.00;51.20;;;8.53;100.00;65180.75;4993996;28;20050;-57
2021/04/28 07:24:17;;;;;;;11.05;4.38;;;8.90;51.20;;;8.62;100.00;65180.75;4993911;28;20074;-58
2021/04/28 07:26:44;;;;;;;15.30;4.78;;;9.00;52.10;;;8.64;100.00;65180.75;4993779;28;20050;-58
2021/04/28 07:29:11;;;;;;;;;;;9.10;51.10;;;8.59;100.00;65180.75;4994108;28;20050;-55
2021/04/28 07:31:38;;;;;;;9.05;4.72;;;9.00;51.90;;;8.61;100.00;65180.75;4993476;28;19933;-56
2021/04/28 07:34:05;;;;;;;10.45;4.57;;;9.10;51.60;;;8.68;100.00;65180.75;4993491;28;20088;-56
2021/04/28 07:36:31;;;;;;;11.98;5.10;;;9.10;51.80;;;8.71;100.00;65180.75;4993781;28;20066;-55
2021/04/28 07:38:58;;;;;;;;;;;9.10;51.20;;;8.73;100.00;65180.75;4994404;28;20038;-56
2021/04/28 07:41:25;;;;;;;11.93;5.90;;;9.20;51.50;;;-147.08;100.00;65180.75;4993260;28;19925;-61
2021/04/28 07:44:04;;;;;;;7.30;4.13;;;9.20;51.10;;;-147.08;100.00;65180.75;4993837;28;20093;-57
2021/04/28 07:46:33;;;;;;;13.80;7.03;;;9.30;51.10;;;-147.08;100.00;65180.75;4993648;28;20038;-56
2021/04/28 07:49:04;;;;;;;10.93;6.63;;;9.40;50.40;;;-147.08;100.00;65180.75;4993260;28;20547;-56
2021/04/28 07:51:35;;;;;;;13.38;6.97;;;9.50;50.50;;;9.14;100.00;84302.06;4993170;28;20050;-53
2021/04/28 07:54:09;;;;;;;12.85;6.95;;;9.60;51.50;;;-147.08;100.00;65180.75;4993643;28;20088;-55
2021/04/28 07:56:36;;;;;;;18.92;6.22;;;9.60;49.90;;;9.38;100.00;65180.75;4992731;28;20042;-56
2021/04/28 07:59:03;;;;;;;13.68;6.47;;;9.70;50.10;;;-147.08;100.00;65180.75;4993678;28;20070;-55
2021/04/28 08:01:30;;;;;;;16.20;7.07;;;9.80;50.00;;;-147.08;100.00;65180.75;4992782;28;20054;-57
2021/04/28 08:04:00;;;;;;;18.85;7.65;;;9.80;50.00;;;9.51;100.00;65180.75;4993132;28;20484;-55
2021/04/28 08:06:27;;;;;;;18.25;7.85;;;9.90;51.00;;;9.58;100.00;65180.75;4993024;28;20097;-56
2021/04/28 08:08:53;;;;;;;;;;;9.90;50.00;;;9.64;100.00;65180.75;4993885;28;20046;-55
2021/04/28 08:11:20;;;;;;;16.02;7.75;;;9.90;50.40;;;9.67;100.00;65180.75;4992907;28;19976;-54
2021/04/28 08:13:47;;;;;;;18.42;7.63;;;10.00;50.00;;;9.70;100.00;65180.75;4992960;28;20047;-56
2021/04/28 08:16:19;;;;;;;15.65;8.07;;;10.00;49.80;;;-147.08;100.00;65180.75;4992999;28;20215;-56
2021/04/28 08:18:47;;;;;;;19.25;7.55;;;10.10;49.80;;;-147.08;100.00;65180.75;4992144;28;20058;-57
2021/04/28 08:21:15;;;;;;;15.32;8.23;;;10.20;50.20;;;188.52;100.00;65180.75;4992764;28;20477;-54
2021/04/28 08:23:43;;;;;;;16.00;8.05;;;10.30;49.50;;;-147.08;100.00;65180.75;4992617;28;20062;-54
2021/04/28 08:26:11;;;;;;;19.30;8.27;;;10.30;49.10;;;188.52;100.00;65180.75;5008286;28;20100;-57
2021/04/28 08:28:41;;;;;;;24.35;7.18;;;10.30;48.90;;;-147.08;100.00;65180.75;4992665;28;20058;-56
2021/04/28 08:31:11;;;;;;;19.77;8.07;;;10.40;48.70;;;188.52;100.00;65180.75;4991484;28;20038;-56
2021/04/28 08:33:39;;;;;;;14.27;7.88;;;10.40;49.20;;;10.10;100.00;65180.75;4992358;28;20077;-55
2021/04/28 08:36:08;;;;;;;22.05;7.88;;;10.40;49.10;;;10.12;100.00;65180.75;4992528;28;20046;-57
2021/04/28 08:38:36;;;;;;;22.20;8.18;;;10.40;48.70;;;10.22;100.00;65180.75;4992804;28;20070;-57
2021/04/28 08:41:07;;;;;;;15.23;7.05;;;10.50;48.90;;;-147.08;100.00;65180.75;4992622;28;20043;-55
2021/04/28 08:43:35;;;;;;;20.92;7.90;;;10.50;48.30;;;-147.08;100.00;65180.75;4991869;28;20050;-54
2021/04/28 08:46:02;;;;;;;20.85;7.85;;;10.60;48.10;;;10.36;100.00;65180.75;5001894;28;20042;-57
2021/04/28 08:48:30;;;;;;;19.95;9.13;;;10.60;47.90;;;10.46;100.00;65180.75;5005380;28;20041;-58
2021/04/28 08:50:59;;;;;;;25.98;7.82;;;10.70;48.00;;;-147.08;100.00;65180.75;5008131;28;20034;-57
2021/04/28 08:53:32;;;;;;;15.43;7.03;;;10.90;48.40;;;-147.08;100.00;65180.75;5000415;28;20125;-52
2021/04/28 08:56:07;;;;;;;18.65;9.07;;;11.00;48.30;;;-147.08;100.00;65180.75;5008267;28;20103;-54
2021/04/28 08:58:36;;;;;;;15.13;8.98;;;11.10;48.20;;;-147.08;100.00;65180.75;5004371;28;20034;-52
2021/04/28 09:01:04;;;;;;;17.40;8.23;;;11.10;47.40;;;-147.08;100.00;65180.75;4999370;28;20042;-55
2021/04/28 09:03:44;;;;;;;18.35;9.25;;;11.20;48.10;;;-147.08;100.00;65180.75;5002827;28;20046;-54
2021/04/28 09:06:28;;;;;;;15.70;8.13;;;11.30;47.20;;;-147.08;100.00;65180.75;5008115;28;20062;-54
2021/04/28 09:08:56;;;;;;;22.30;8.52;;;11.40;46.20;;;-147.08;100.00;65180.75;5003134;28;20096;-54
2021/04/28 09:11:38;;;;;;;22.05;8.65;;;11.40;47.70;;;20.56;100.00;65180.75;5007852;28;20046;-56
2021/04/28 09:14:15;;;;;;;21.17;7.72;;;11.40;46.30;;;-147.08;100.00;65180.75;5003851;28;20049;-58
2021/04/28 09:16:54;;;;;;;18.67;10.40;;;11.50;46.60;;;-147.08;100.00;65180.75;5005506;28;20057;-55
2021/04/28 09:19:52;;;;;;;21.75;9.05;;;11.50;46.20;;;11.39;100.00;65180.75;4999878;28;20421;-56
2021/04/28 09:22:37;;;;;;;19.13;8.02;;;11.60;46.40;;;11.47;100.00;65180.75;5004655;28;20042;-55
2021/04/28 09:25:41;;;;;;;25.55;8.77;;;11.60;45.80;;;11.63;100.00;65180.75;5002561;28;20058;-55
2021/04/28 09:28:30;;;;;;;21.40;8.95;;;11.80;44.30;;;-147.08;100.00;65180.75;4997610;28;20062;-54
2021/04/28 09:31:13;;;;;;;16.48;9.90;;;12.00;43.40;;;-147.08;100.00;65180.75;4990882;28;20054;-55
2021/04/28 09:33:43;;;;;;;19.60;7.82;;;12.00;43.70;;;-147.08;100.00;65180.75;5005138;28;20050;-56
2021/04/28 09:36:12;;;;;;;17.75;9.88;;;12.20;43.30;;;-147.08;100.00;65180.75;5002606;28;20042;-55
2021/04/28 09:39:18;;;;;;;16.42;10.10;;;12.30;44.30;;;-147.08;100.00;65180.75;5006096;28;20038;-52
2021/04/28 09:41:50;;;;;;;21.58;9.27;;;12.40;42.80;;;-147.08;100.00;65180.75;5001042;28;20034;-52
2021/04/28 09:44:20;;;;;;;18.13;8.70;;;12.30;43.70;;;-147.08;100.00;65180.75;5009520;28;20045;-52
2021/04/28 09:47:11;;;;;;;17.92;10.00;;;12.30;44.50;;;20.56;100.00;65180.75;5006908;28;20042;-56
2021/04/28 09:49:54;;;;;;;18.73;11.80;;;12.30;45.00;;;-147.08;100.00;65180.75;5007197;28;21621;-56
2021/04/28 09:52:30;;;;;;;20.92;11.20;;;12.50;44.10;;;-147.08;100.00;65180.75;5001060;28;20065;-55
2021/04/28 09:55:04;;;;;;;18.25;10.45;;;12.50;44.70;;;-147.08;100.00;65180.75;5005990;28;20053;-52
2021/04/28 09:57:54;;;;;;;20.50;11.52;;;12.60;44.50;;;12.41;100.00;65180.75;5001921;28;20038;-54
2021/04/28 10:00:30;;;;;;;21.55;10.82;;;12.60;44.80;;;-147.08;100.00;65180.75;5000720;28;20050;-55
2021/04/28 10:03:07;;;;;;;20.75;11.43;;;12.70;44.90;;;12.54;100.00;65180.75;5009567;28;20049;-54
2021/04/28 10:05:41;;;;;;;19.98;10.43;;;12.80;44.10;;;-147.08;100.00;65180.75;5007383;28;20054;-54
2021/04/28 10:08:18;;;;;;;22.58;11.65;;;12.80;44.10;;;-147.08;100.00;65180.75;5008222;28;20066;-54
2021/04/28 10:10:46;;;;;;;71.45;20.25;;;12.90;44.90;;;12.71;100.00;84656.28;5007507;28;20049;-52
2021/04/28 10:13:14;;;;;;;24.45;12.35;;;13.00;44.00;;;-147.08;100.00;65180.75;5008095;28;20428;-54
2021/04/28 10:15:45;;;;;;;17.58;10.80;;;13.00;43.50;;;-147.08;100.00;65180.75;5006121;28;20038;-54
2021/04/28 10:18:16;;;;;;;27.20;12.77;;;13.10;43.70;;;188.52;100.00;65180.75;5009287;28;20143;-54
2021/04/28 10:20:45;;;;;;;22.10;10.45;;;13.20;44.30;;;12.99;100.00;65180.75;5000940;28;20050;-52
2021/04/28 10:23:15;;;;;;;23.02;10.88;;;13.20;44.00;;;12.99;100.00;65180.75;5009692;28;20389;-54
2021/04/28 10:25:48;;;;;;;37.05;11.50;;;13.20;43.80;;;13.01;100.00;65180.75;5004682;28;20058;-53
2021/04/28 10:28:21;;;;;;;23.67;10.18;;;13.20;44.50;;;12.99;100.00;65180.75;5001242;28;20089;-54
2021/04/28 10:30:49;;;;;;;23.77;10.20;;;13.20;45.10;;;-147.08;100.00;65180.75;5009211;28;20046;-56
2021/04/28 10:33:20;;;;;;;18.73;11.40;;;13.20;44.70;;;13.04;100.00;65180.75;4994929;28;20047;-54
2021/04/28 10:35:50;;;;;;;25.20;10.10;;;13.30;44.50;;;-147.08;100.00;65180.75;4990929;28;20050;-55
2021/04/28 10:38:22;;;;;;;24.40;10.88;;;13.40;44.10;;;13.20;100.00;65180.75;4990210;28;20054;-56
2021/04/28 10:40:49;;;;;;;25.60;11.27;;;13.50;44.30;;;-147.08;100.00;65180.75;4988889;28;20050;-53
2021/04/28 10:43:38;;;;;;;19.33;10.82;;;13.60;43.40;;;13.34;100.00;65180.75;4994428;28;20527;-54
2021/04/28 10:46:19;;;;;;;25.08;12.98;;;13.60;43.50;;;-147.08;100.00;65180.75;4994502;28;20069;-55
2021/04/28 10:49:17;;;;;;;25.33;12.93;;;13.70;43.30;;;-147.08;100.00;65180.75;4994942;28;20515;-54
2021/04/28 10:51:47;;;;;;;22.00;10.98;;;13.90;41.80;;;15.32;100.00;65180.75;4994776;28;20058;-54
2021/04/28 10:54:28;;;;;;;21.25;11.77;;;14.10;42.60;;;-147.08;100.00;65180.75;4994020;28;20054;-54
2021/04/28 10:57:06;;;;;;;19.60;10.30;;;14.10;42.40;;;-147.08;100.00;65180.75;4981032;28;20408;-54
2021/04/28 10:59:38;;;;;;;21.65;11.73;;;14.10;40.30;;;-147.08;100.00;65180.75;4994493;28;20046;-53